Wetterdaten: Mittwoch, 03.06.2015
Datum Zeit Auen-Temp. Temp gefhlt Luftfeuchte Luftdruck Regen Wind Richtung Richtung Taupunkt Windben
03.06.2015 00:00 14,5 C 14,3 C 79 % 1020,2 hPa 0,0 mm 0,0 km/h (0 Bft) S-SO 157 10,9 C 0,0 km/h (0 Bft)
03.06.2015 00:05 14,5 C 14,3 C 79 % 1020,2 hPa 0,0 mm 0,0 km/h (0 Bft) S-SO 157 10,9 C 0,0 km/h (0 Bft)
03.06.2015 00:10 14,2 C 14,0 C 79 % 1020,2 hPa 0,0 mm 0,0 km/h (0 Bft) W-SW 247 10,6 C 0,0 km/h (0 Bft)
03.06.2015 00:15 14,3 C 14,0 C 80 % 1020,2 hPa 0,0 mm 0,0 km/h (0 Bft) W-SW 247 10,9 C 0,0 km/h (0 Bft)
03.06.2015 00:20 14,3 C 14,0 C 81 % 1020,2 hPa 0,0 mm 0,0 km/h (0 Bft) S-SO 157 11,1 C 0,0 km/h (0 Bft)
03.06.2015 00:25 14,2 C 14,0 C 81 % 1020,2 hPa 0,0 mm 0,0 km/h (0 Bft) S-SO 157 11,0 C 0,0 km/h (0 Bft)
03.06.2015 00:30 14,2 C 14,0 C 81 % 1020,2 hPa 0,0 mm 0,0 km/h (0 Bft) O-SO 112 11,0 C 0,0 km/h (0 Bft)
03.06.2015 00:35 14,0 C 13,8 C 81 % 1020,2 hPa 0,0 mm 0,0 km/h (0 Bft) NW 315 10,8 C 0,0 km/h (0 Bft)
03.06.2015 00:40 13,9 C 13,7 C 81 % 1020,2 hPa 0,0 mm 0,0 km/h (0 Bft) SO 135 10,7 C 0,0 km/h (0 Bft)
03.06.2015 00:45 14,0 C 13,8 C 81 % 1020,2 hPa 0,0 mm 0,0 km/h (0 Bft) SO 135 10,8 C 0,0 km/h (0 Bft)
03.06.2015 00:50 13,8 C 13,6 C 81 % 1020,2 hPa 0,0 mm 0,0 km/h (0 Bft) SO 135 10,6 C 0,0 km/h (0 Bft)
03.06.2015 00:55 13,8 C 13,6 C 81 % 1020,2 hPa 0,0 mm 0,0 km/h (0 Bft) W-SW 247 10,6 C 0,0 km/h (0 Bft)
03.06.2015 01:00 13,9 C 13,7 C 82 % 1020,3 hPa 0,0 mm 0,0 km/h (0 Bft) S 180 10,9 C 0,0 km/h (0 Bft)
03.06.2015 01:05 14,2 C 14,0 C 83 % 1020,3 hPa 0,0 mm 0,0 km/h (0 Bft) S 180 11,4 C 0,0 km/h (0 Bft)
03.06.2015 01:10 14,4 C 14,2 C 83 % 1020,3 hPa 0,0 mm 0,0 km/h (0 Bft) O-SO 112 11,5 C 0,0 km/h (0 Bft)
03.06.2015 01:15 14,2 C 14,0 C 82 % 1020,3 hPa 0,0 mm 0,0 km/h (0 Bft) S-SO 157 11,2 C 0,0 km/h (0 Bft)
03.06.2015 01:20 14,4 C 14,2 C 83 % 1020,1 hPa 0,0 mm 0,5 km/h (0 Bft) O-SO 112 11,5 C 3,9 km/h (1 Bft)
03.06.2015 01:25 14,3 C 14,1 C 82 % 1020,1 hPa 0,0 mm 0,5 km/h (0 Bft) W-SW 247 11,3 C 2,6 km/h (1 Bft)
03.06.2015 01:30 14,3 C 14,2 C 82 % 1020,1 hPa 0,0 mm 1,0 km/h (0 Bft) W-SW 247 11,3 C 0,0 km/h (0 Bft)
03.06.2015 01:35 14,2 C 14,1 C 82 % 1020,1 hPa 0,0 mm 0,8 km/h (0 Bft) W 270 11,2 C 7,8 km/h (2 Bft)
03.06.2015 01:40 13,9 C 13,8 C 82 % 1020,2 hPa 0,0 mm 0,0 km/h (0 Bft) W 270 10,9 C 0,0 km/h (0 Bft)
03.06.2015 01:45 13,9 C 13,8 C 82 % 1020,2 hPa 0,0 mm 0,0 km/h (0 Bft) S-SW 202 10,9 C 0,0 km/h (0 Bft)
03.06.2015 01:50 13,9 C 13,7 C 82 % 1020,2 hPa 0,0 mm 0,3 km/h (0 Bft) S 180 10,9 C 0,0 km/h (0 Bft)
03.06.2015 01:55 14,0 C 13,8 C 82 % 1020,2 hPa 0,0 mm 0,3 km/h (0 Bft) W-NW 292 11,0 C 0,0 km/h (0 Bft)
03.06.2015 02:00 14,0 C 13,8 C 82 % 1020,1 hPa 0,0 mm 0,3 km/h (0 Bft) NW 315 11,0 C 0,0 km/h (0 Bft)
03.06.2015 02:05 14,1 C 13,9 C 82 % 1020,1 hPa 0,0 mm 0,3 km/h (0 Bft) SO 135 11,1 C 0,0 km/h (0 Bft)
03.06.2015 02:10 13,9 C 13,7 C 82 % 1020,1 hPa 0,0 mm 0,0 km/h (0 Bft) S-SO 157 10,9 C 0,0 km/h (0 Bft)
03.06.2015 02:15 13,8 C 13,6 C 82 % 1020,1 hPa 0,0 mm 0,0 km/h (0 Bft) S-SW 202 10,8 C 0,0 km/h (0 Bft)
03.06.2015 02:20 13,8 C 13,6 C 82 % 1020,2 hPa 0,0 mm 0,0 km/h (0 Bft) S-SO 157 10,8 C 0,0 km/h (0 Bft)
03.06.2015 02:25 13,6 C 13,4 C 82 % 1020,2 hPa 0,0 mm 0,0 km/h (0 Bft) SO 135 10,6 C 0,0 km/h (0 Bft)
03.06.2015 02:30 13,5 C 13,3 C 82 % 1020,2 hPa 0,0 mm 0,0 km/h (0 Bft) SO 135 10,5 C 0,0 km/h (0 Bft)
03.06.2015 02:35 13,5 C 13,3 C 82 % 1020,2 hPa 0,0 mm 0,0 km/h (0 Bft) S-SO 157 10,5 C 0,0 km/h (0 Bft)
03.06.2015 02:40 13,5 C 13,2 C 83 % 1020,2 hPa 0,0 mm 0,0 km/h (0 Bft) SO 135 10,7 C 0,0 km/h (0 Bft)
03.06.2015 02:45 13,7 C 13,4 C 83 % 1020,2 hPa 0,0 mm 0,0 km/h (0 Bft) S 180 10,9 C 0,0 km/h (0 Bft)
03.06.2015 02:50 13,8 C 13,5 C 83 % 1020,2 hPa 0,0 mm 0,5 km/h (0 Bft) W 270 11,0 C 0,0 km/h (0 Bft)
03.06.2015 02:55 14,2 C 13,9 C 83 % 1020,2 hPa 0,0 mm 1,6 km/h (1 Bft) O-SO 112 11,4 C 2,8 km/h (1 Bft)
03.06.2015 03:00 13,9 C 13,8 C 83 % 1020,4 hPa 0,0 mm 1,3 km/h (1 Bft) O-NO 67 11,1 C 0,0 km/h (0 Bft)
03.06.2015 03:05 13,7 C 13,6 C 83 % 1020,4 hPa 0,0 mm 1,3 km/h (1 Bft) W-SW 247 10,9 C 8,3 km/h (2 Bft)
03.06.2015 03:10 13,6 C 13,5 C 83 % 1020,4 hPa 0,0 mm 0,0 km/h (0 Bft) S 180 10,8 C 0,0 km/h (0 Bft)
03.06.2015 03:15 13,2 C 13,2 C 82 % 1020,4 hPa 0,0 mm 0,0 km/h (0 Bft) W-NW 292 10,2 C 0,0 km/h (0 Bft)
03.06.2015 03:20 13,1 C 13,0 C 82 % 1020,3 hPa 0,0 mm 0,0 km/h (0 Bft) N-NW 337 10,1 C 0,0 km/h (0 Bft)
03.06.2015 03:25 12,9 C 12,8 C 83 % 1020,3 hPa 0,0 mm 0,0 km/h (0 Bft) N-NW 337 10,1 C 0,0 km/h (0 Bft)
03.06.2015 03:30 12,7 C 12,6 C 83 % 1020,3 hPa 0,0 mm 0,0 km/h (0 Bft) N-NW 337 9,9 C 0,0 km/h (0 Bft)
03.06.2015 03:35 12,6 C 12,5 C 83 % 1020,3 hPa 0,0 mm 0,0 km/h (0 Bft) N-NW 337 9,8 C 0,0 km/h (0 Bft)
03.06.2015 03:40 12,7 C 12,5 C 84 % 1020,3 hPa 0,0 mm 0,0 km/h (0 Bft) N-NW 337 10,1 C 0,0 km/h (0 Bft)
03.06.2015 03:45 12,5 C 12,4 C 84 % 1020,3 hPa 0,0 mm 0,0 km/h (0 Bft) N-NW 337 9,9 C 0,0 km/h (0 Bft)
03.06.2015 03:50 12,5 C 12,3 C 84 % 1020,3 hPa 0,0 mm 0,0 km/h (0 Bft) S-SO 157 9,9 C 0,0 km/h (0 Bft)
03.06.2015 03:55 12,4 C 12,3 C 84 % 1020,3 hPa 0,0 mm 0,0 km/h (0 Bft) S-SO 157 9,8 C 0,0 km/h (0 Bft)
03.06.2015 04:00 12,3 C 12,2 C 85 % 1020,4 hPa 0,0 mm 0,0 km/h (0 Bft) S-SO 157 9,9 C 0,0 km/h (0 Bft)
03.06.2015 04:05 12,2 C 12,1 C 85 % 1020,4 hPa 0,0 mm 0,0 km/h (0 Bft) N-NW 337 9,8 C 0,0 km/h (0 Bft)
03.06.2015 04:10 12,0 C 11,9 C 85 % 1020,4 hPa 0,0 mm 0,0 km/h (0 Bft) N-NW 337 9,6 C 0,0 km/h (0 Bft)
03.06.2015 04:15 12,1 C 11,9 C 85 % 1020,4 hPa 0,0 mm 0,0 km/h (0 Bft) N-NW 337 9,7 C 0,0 km/h (0 Bft)
03.06.2015 04:20 12,1 C 11,9 C 86 % 1020,6 hPa 0,0 mm 0,0 km/h (0 Bft) W-SW 247 9,8 C 0,0 km/h (0 Bft)
03.06.2015 04:25 11,9 C 11,7 C 86 % 1020,6 hPa 0,0 mm 0,0 km/h (0 Bft) W-SW 247 9,6 C 0,0 km/h (0 Bft)
03.06.2015 04:30 12,1 C 11,8 C 86 % 1020,6 hPa 0,0 mm 0,3 km/h (0 Bft) S 180 9,8 C 0,0 km/h (0 Bft)
03.06.2015 04:35 12,2 C 11,9 C 86 % 1020,6 hPa 0,0 mm 1,8 km/h (1 Bft) SW 225 9,9 C 7,0 km/h (2 Bft)
03.06.2015 04:40 12,8 C 12,5 C 87 % 1020,8 hPa 0,0 mm 4,1 km/h (1 Bft) S-SO 157 10,7 C 3,9 km/h (1 Bft)
03.06.2015 04:45 13,0 C 12,7 C 87 % 1020,8 hPa 0,0 mm 4,4 km/h (1 Bft) S 180 10,9 C 13,7 km/h (3 Bft)
03.06.2015 04:50 13,1 C 12,9 C 87 % 1020,8 hPa 0,0 mm 2,6 km/h (1 Bft) S 180 11,0 C 0,0 km/h (0 Bft)
03.06.2015 04:55 12,9 C 12,8 C 87 % 1020,8 hPa 0,0 mm 1,3 km/h (1 Bft) S-SO 157 10,8 C 0,0 km/h (0 Bft)
03.06.2015 05:00 12,1 C 12,3 C 86 % 1020,8 hPa 0,0 mm 0,3 km/h (0 Bft) O-SO 112 9,8 C 0,0 km/h (0 Bft)
03.06.2015 05:05 11,9 C 11,9 C 86 % 1020,8 hPa 0,0 mm 0,0 km/h (0 Bft) S-SO 157 9,6 C 0,0 km/h (0 Bft)
03.06.2015 05:10 11,8 C 11,7 C 86 % 1020,8 hPa 0,0 mm 0,3 km/h (0 Bft) O-SO 112 9,5 C 0,0 km/h (0 Bft)
03.06.2015 05:15 11,8 C 11,7 C 86 % 1020,8 hPa 0,0 mm 1,6 km/h (1 Bft) S 180 9,5 C 3,4 km/h (1 Bft)
03.06.2015 05:20 12,6 C 12,4 C 87 % 1020,8 hPa 0,0 mm 3,4 km/h (1 Bft) SO 135 10,5 C 0,0 km/h (0 Bft)
03.06.2015 05:25 12,3 C 12,3 C 86 % 1020,8 hPa 0,0 mm 3,4 km/h (1 Bft) S 180 10,0 C 0,0 km/h (0 Bft)
03.06.2015 05:30 12,7 C 12,7 C 86 % 1020,8 hPa 0,0 mm 3,1 km/h (1 Bft) S-SO 157 10,4 C 3,9 km/h (1 Bft)
03.06.2015 05:35 13,0 C 12,9 C 86 % 1020,8 hPa 0,0 mm 3,6 km/h (1 Bft) W 270 10,7 C 3,1 km/h (1 Bft)
03.06.2015 05:40 12,9 C 12,9 C 86 % 1020,9 hPa 0,0 mm 3,4 km/h (1 Bft) S-SO 157 10,6 C 4,4 km/h (1 Bft)
03.06.2015 05:45 13,1 C 13,1 C 85 % 1020,9 hPa 0,0 mm 3,9 km/h (1 Bft) S-SW 202 10,6 C 12,7 km/h (3 Bft)
03.06.2015 05:50 13,0 C 13,4 C 84 % 1020,9 hPa 0,0 mm 3,1 km/h (1 Bft) SO 135 10,4 C 0,0 km/h (0 Bft)
03.06.2015 05:55 13,0 C 13,5 C 84 % 1020,9 hPa 0,0 mm 1,6 km/h (1 Bft) S-SO 157 10,4 C 0,0 km/h (0 Bft)
03.06.2015 06:00 12,9 C 14,4 C 84 % 1020,9 hPa 0,0 mm 0,0 km/h (0 Bft) SO 135 10,3 C 0,0 km/h (0 Bft)
03.06.2015 06:05 13,0 C 15,4 C 81 % 1020,9 hPa 0,0 mm 0,3 km/h (0 Bft) S 180 9,8 C 0,0 km/h (0 Bft)
03.06.2015 06:10 13,2 C 16,5 C 83 % 1020,9 hPa 0,0 mm 0,3 km/h (0 Bft) W-SW 247 10,4 C 0,0 km/h (0 Bft)
03.06.2015 06:15 13,4 C 17,3 C 80 % 1020,9 hPa 0,0 mm 0,0 km/h (0 Bft) W-SW 247 10,0 C 0,0 km/h (0 Bft)
03.06.2015 06:20 13,7 C 18,1 C 83 % 1021,0 hPa 0,0 mm 0,0 km/h (0 Bft) N-NO 22 10,9 C 0,0 km/h (0 Bft)
03.06.2015 06:25 14,0 C 18,7 C 79 % 1021,0 hPa 0,0 mm 0,0 km/h (0 Bft) O-SO 112 10,4 C 0,0 km/h (0 Bft)
03.06.2015 06:30 14,3 C 19,6 C 79 % 1021,0 hPa 0,0 mm 0,0 km/h (0 Bft) NO 45 10,7 C 0,0 km/h (0 Bft)
03.06.2015 06:35 14,7 C 20,4 C 78 % 1021,0 hPa 0,0 mm 0,0 km/h (0 Bft) NO 45 10,9 C 0,0 km/h (0 Bft)
03.06.2015 06:40 15,1 C 21,0 C 77 % 1021,2 hPa 0,0 mm 0,0 km/h (0 Bft) N-NO 22 11,1 C 0,0 km/h (0 Bft)
03.06.2015 06:45 15,4 C 21,7 C 77 % 1021,2 hPa 0,0 mm 0,0 km/h (0 Bft) N-NO 22 11,4 C 0,0 km/h (0 Bft)
03.06.2015 06:50 15,8 C 22,6 C 78 % 1021,2 hPa 0,0 mm 0,0 km/h (0 Bft) N-NO 22 12,0 C 0,0 km/h (0 Bft)
03.06.2015 06:55 16,5 C 23,2 C 78 % 1021,2 hPa 0,0 mm 0,0 km/h (0 Bft) N-NO 22 12,6 C 0,0 km/h (0 Bft)
03.06.2015 07:00 16,9 C 24,3 C 77 % 1021,3 hPa 0,0 mm 0,0 km/h (0 Bft) N-NO 22 12,8 C 0,0 km/h (0 Bft)
03.06.2015 07:05 17,3 C 24,9 C 76 % 1021,3 hPa 0,0 mm 0,0 km/h (0 Bft) N-NO 22 13,0 C 0,0 km/h (0 Bft)
03.06.2015 07:10 17,8 C 25,4 C 76 % 1021,3 hPa 0,0 mm 0,0 km/h (0 Bft) W-NW 292 13,5 C 0,0 km/h (0 Bft)
03.06.2015 07:15 17,8 C 26,1 C 74 % 1021,3 hPa 0,0 mm 0,0 km/h (0 Bft) N-NO 22 13,1 C 0,0 km/h (0 Bft)
03.06.2015 07:20 18,4 C 27,0 C 73 % 1021,6 hPa 0,0 mm 0,0 km/h (0 Bft) N-NO 22 13,5 C 0,0 km/h (0 Bft)
03.06.2015 07:25 18,2 C 27,3 C 72 % 1021,6 hPa 0,0 mm 0,0 km/h (0 Bft) N-NO 22 13,1 C 0,0 km/h (0 Bft)
03.06.2015 07:30 17,9 C 25,6 C 73 % 1021,6 hPa 0,0 mm 0,0 km/h (0 Bft) N-NO 22 13,0 C 0,0 km/h (0 Bft)
03.06.2015 07:35 18,5 C 25,4 C 73 % 1021,6 hPa 0,0 mm 0,0 km/h (0 Bft) N-NW 337 13,6 C 0,0 km/h (0 Bft)
03.06.2015 07:40 19,2 C 25,3 C 70 % 1021,7 hPa 0,0 mm 0,0 km/h (0 Bft) N 360 13,6 C 0,0 km/h (0 Bft)
03.06.2015 07:45 18,5 C 24,6 C 70 % 1021,7 hPa 0,0 mm 0,0 km/h (0 Bft) N 360 12,9 C 0,0 km/h (0 Bft)
03.06.2015 07:50 17,9 C 23,1 C 71 % 1021,7 hPa 0,0 mm 0,0 km/h (0 Bft) W-NW 292 12,6 C 0,0 km/h (0 Bft)
03.06.2015 07:55 18,7 C 25,0 C 72 % 1021,7 hPa 0,0 mm 0,0 km/h (0 Bft) N-NO 22 13,5 C 0,0 km/h (0 Bft)
03.06.2015 08:00 18,2 C 25,2 C 71 % 1021,6 hPa 0,0 mm 0,0 km/h (0 Bft) N-NO 22 12,9 C 0,0 km/h (0 Bft)
03.06.2015 08:05 18,9 C 25,0 C 71 % 1021,6 hPa 0,0 mm 0,0 km/h (0 Bft) N-NO 22 13,5 C 0,0 km/h (0 Bft)
03.06.2015 08:10 19,8 C 27,5 C 70 % 1021,6 hPa 0,0 mm 0,0 km/h (0 Bft) N-NO 22 14,2 C 0,0 km/h (0 Bft)
03.06.2015 08:15 19,8 C 28,1 C 69 % 1021,6 hPa 0,0 mm 0,0 km/h (0 Bft) N-NO 22 13,9 C 0,0 km/h (0 Bft)
03.06.2015 08:20 20,4 C 29,4 C 69 % 1021,4 hPa 0,0 mm 0,0 km/h (0 Bft) N-NO 22 14,5 C 0,0 km/h (0 Bft)
03.06.2015 08:25 20,9 C 30,2 C 69 % 1021,4 hPa 0,0 mm 0,0 km/h (0 Bft) N-NO 22 15,0 C 0,0 km/h (0 Bft)
03.06.2015 08:30 21,3 C 31,1 C 67 % 1021,4 hPa 0,0 mm 0,0 km/h (0 Bft) N-NO 22 14,9 C 0,0 km/h (0 Bft)
03.06.2015 08:35 21,2 C 31,3 C 66 % 1021,4 hPa 0,0 mm 0,0 km/h (0 Bft) N-NO 22 14,6 C 0,0 km/h (0 Bft)
03.06.2015 08:40 21,2 C 30,3 C 67 % 1021,6 hPa 0,0 mm 0,0 km/h (0 Bft) N-NO 22 14,8 C 0,0 km/h (0 Bft)
03.06.2015 08:45 21,3 C 31,1 C 67 % 1021,6 hPa 0,0 mm 0,0 km/h (0 Bft) N-NO 22 14,9 C 0,0 km/h (0 Bft)
03.06.2015 08:50 21,4 C 32,0 C 66 % 1021,6 hPa 0,0 mm 0,0 km/h (0 Bft) N-NO 22 14,8 C 0,0 km/h (0 Bft)
03.06.2015 08:55 21,8 C 32,0 C 65 % 1021,6 hPa 0,0 mm 1,0 km/h (0 Bft) NW 315 14,9 C 7,3 km/h (2 Bft)
03.06.2015 09:00 22,6 C 30,3 C 59 % 1021,8 hPa 0,0 mm 6,2 km/h (2 Bft) NW 315 14,2 C 7,8 km/h (2 Bft)
03.06.2015 09:05 23,0 C 29,7 C 58 % 1021,8 hPa 0,0 mm 8,3 km/h (2 Bft) W 270 14,3 C 16,6 km/h (3 Bft)
03.06.2015 09:10 23,2 C 29,2 C 56 % 1021,8 hPa 0,0 mm 7,5 km/h (2 Bft) NW 315 13,9 C 12,4 km/h (3 Bft)
03.06.2015 09:15 23,5 C 29,0 C 56 % 1021,8 hPa 0,0 mm 7,5 km/h (2 Bft) NW 315 14,2 C 17,1 km/h (3 Bft)
03.06.2015 09:20 23,6 C 28,7 C 54 % 1022,0 hPa 0,0 mm 8,3 km/h (2 Bft) W-SW 247 13,7 C 7,5 km/h (2 Bft)
03.06.2015 09:25 23,6 C 29,0 C 53 % 1022,0 hPa 0,0 mm 7,8 km/h (2 Bft) N-NW 337 13,4 C 4,1 km/h (1 Bft)
03.06.2015 09:30 23,7 C 29,0 C 52 % 1022,0 hPa 0,0 mm 7,0 km/h (2 Bft) NW 315 13,2 C 7,8 km/h (2 Bft)
03.06.2015 09:35 23,9 C 29,1 C 52 % 1022,0 hPa 0,0 mm 6,5 km/h (2 Bft) NW 315 13,4 C 0,0 km/h (0 Bft)
03.06.2015 09:40 24,4 C 29,8 C 51 % 1022,3 hPa 0,0 mm 4,7 km/h (1 Bft) W 270 13,6 C 4,7 km/h (1 Bft)
03.06.2015 09:45 24,5 C 30,2 C 52 % 1022,3 hPa 0,0 mm 3,9 km/h (1 Bft) S 180 14,0 C 10,9 km/h (2 Bft)
03.06.2015 09:50 24,7 C 30,3 C 50 % 1022,3 hPa 0,0 mm 4,7 km/h (1 Bft) W-NW 292 13,6 C 7,0 km/h (2 Bft)
03.06.2015 09:55 24,7 C 29,9 C 49 % 1022,3 hPa 0,0 mm 7,0 km/h (2 Bft) NW 315 13,3 C 6,0 km/h (2 Bft)
03.06.2015 10:00 24,7 C 29,5 C 49 % 1022,6 hPa 0,0 mm 8,0 km/h (2 Bft) W 270 13,3 C 6,7 km/h (2 Bft)
03.06.2015 10:05 24,7 C 29,5 C 49 % 1022,6 hPa 0,0 mm 7,3 km/h (2 Bft) W-NW 292 13,3 C 19,4 km/h (3 Bft)
03.06.2015 10:10 24,6 C 29,4 C 49 % 1022,6 hPa 0,0 mm 6,5 km/h (2 Bft) W-SW 247 13,2 C 3,4 km/h (1 Bft)
03.06.2015 10:15 24,5 C 29,4 C 49 % 1022,6 hPa 0,0 mm 6,5 km/h (2 Bft) W 270 13,1 C 7,3 km/h (2 Bft)
03.06.2015 10:20 24,5 C 29,1 C 49 % 1022,8 hPa 0,0 mm 7,5 km/h (2 Bft) NW 315 13,1 C 9,8 km/h (2 Bft)
03.06.2015 10:25 24,7 C 29,3 C 49 % 1022,8 hPa 0,0 mm 8,0 km/h (2 Bft) N-NW 337 13,3 C 11,4 km/h (2 Bft)
03.06.2015 10:30 24,7 C 29,0 C 49 % 1022,8 hPa 0,0 mm 9,6 km/h (2 Bft) NW 315 13,3 C 22,3 km/h (4 Bft)
03.06.2015 10:35 24,6 C 28,6 C 49 % 1022,8 hPa 0,0 mm 11,4 km/h (2 Bft) NW 315 13,2 C 10,4 km/h (2 Bft)
03.06.2015 10:40 24,6 C 28,2 C 49 % 1023,1 hPa 0,0 mm 11,7 km/h (2 Bft) W 270 13,2 C 4,7 km/h (1 Bft)
03.06.2015 10:45 24,7 C 28,7 C 49 % 1023,1 hPa 0,0 mm 9,6 km/h (2 Bft) S-SO 157 13,3 C 25,4 km/h (4 Bft)
03.06.2015 10:50 24,5 C 28,7 C 48 % 1023,1 hPa 0,0 mm 9,1 km/h (2 Bft) W 270 12,8 C 15,5 km/h (3 Bft)
03.06.2015 10:55 24,5 C 28,5 C 49 % 1023,1 hPa 0,0 mm 10,1 km/h (2 Bft) NW 315 13,1 C 6,2 km/h (2 Bft)
03.06.2015 11:00 24,8 C 28,7 C 48 % 1023,1 hPa 0,0 mm 9,8 km/h (2 Bft) W-NW 292 13,0 C 13,5 km/h (3 Bft)
03.06.2015 11:05 24,9 C 28,8 C 48 % 1023,1 hPa 0,0 mm 8,3 km/h (2 Bft) O-SO 112 13,1 C 3,4 km/h (1 Bft)
03.06.2015 11:10 25,1 C 28,9 C 47 % 1023,1 hPa 0,0 mm 9,3 km/h (2 Bft) NW 315 13,0 C 15,5 km/h (3 Bft)
03.06.2015 11:15 25,3 C 29,0 C 48 % 1023,1 hPa 0,0 mm 8,3 km/h (2 Bft) S 180 13,5 C 4,7 km/h (1 Bft)
03.06.2015 11:20 25,4 C 29,6 C 47 % 1023,2 hPa 0,0 mm 6,0 km/h (2 Bft) W-SW 247 13,3 C 4,1 km/h (1 Bft)
03.06.2015 11:25 25,4 C 29,8 C 47 % 1023,2 hPa 0,0 mm 5,7 km/h (1 Bft) W-SW 247 13,3 C 8,8 km/h (2 Bft)
03.06.2015 11:30 25,3 C 29,5 C 46 % 1023,2 hPa 0,0 mm 8,3 km/h (2 Bft) W-NW 292 12,8 C 19,7 km/h (3 Bft)
03.06.2015 11:35 25,3 C 29,1 C 46 % 1023,2 hPa 0,0 mm 11,1 km/h (2 Bft) W-SW 247 12,8 C 19,4 km/h (3 Bft)
03.06.2015 11:40 25,2 C 28,8 C 46 % 1023,2 hPa 0,0 mm 12,9 km/h (3 Bft) NW 315 12,7 C 11,9 km/h (2 Bft)
03.06.2015 11:45 25,3 C 28,7 C 46 % 1023,2 hPa 0,0 mm 11,4 km/h (2 Bft) N-NW 337 12,8 C 28,2 km/h (4 Bft)
03.06.2015 11:50 25,6 C 28,8 C 46 % 1023,2 hPa 0,0 mm 10,9 km/h (2 Bft) N-NO 22 13,1 C 12,2 km/h (2 Bft)
03.06.2015 11:55 25,5 C 28,9 C 45 % 1023,2 hPa 0,0 mm 10,1 km/h (2 Bft) NW 315 12,7 C 5,2 km/h (1 Bft)
03.06.2015 12:00 25,6 C 28,7 C 45 % 1023,2 hPa 0,0 mm 11,9 km/h (2 Bft) W-NW 292 12,8 C 14,5 km/h (3 Bft)
03.06.2015 12:05 25,6 C 28,7 C 45 % 1023,2 hPa 0,0 mm 12,7 km/h (3 Bft) NW 315 12,8 C 23,0 km/h (4 Bft)
03.06.2015 12:10 25,7 C 28,9 C 45 % 1023,2 hPa 0,0 mm 10,6 km/h (2 Bft) W-SW 247 12,9 C 9,8 km/h (2 Bft)
03.06.2015 12:15 25,7 C 29,1 C 46 % 1023,2 hPa 0,0 mm 8,0 km/h (2 Bft) NW 315 13,2 C 5,2 km/h (1 Bft)
03.06.2015 12:20 25,9 C 29,0 C 45 % 1022,9 hPa 0,0 mm 11,1 km/h (2 Bft) W 270 13,0 C 14,0 km/h (3 Bft)
03.06.2015 12:25 25,7 C 28,8 C 45 % 1022,9 hPa 0,0 mm 12,7 km/h (3 Bft) NW 315 12,9 C 14,2 km/h (3 Bft)
03.06.2015 12:30 25,8 C 28,9 C 45 % 1022,9 hPa 0,0 mm 11,4 km/h (2 Bft) NW 315 13,0 C 4,7 km/h (1 Bft)
03.06.2015 12:35 25,8 C 29,2 C 45 % 1022,9 hPa 0,0 mm 11,1 km/h (2 Bft) W-NW 292 13,0 C 29,5 km/h (5 Bft)
03.06.2015 12:40 25,8 C 28,9 C 45 % 1022,9 hPa 0,0 mm 11,4 km/h (2 Bft) N-NW 337 13,0 C 19,7 km/h (3 Bft)
03.06.2015 12:45 26,1 C 29,0 C 43 % 1022,9 hPa 0,0 mm 12,7 km/h (3 Bft) W 270 12,5 C 20,2 km/h (4 Bft)
03.06.2015 12:50 26,2 C 28,8 C 41 % 1022,9 hPa 0,0 mm 12,4 km/h (3 Bft) W-NW 292 11,9 C 7,8 km/h (2 Bft)
03.06.2015 12:55 26,1 C 28,5 C 42 % 1022,9 hPa 0,0 mm 13,2 km/h (3 Bft) W-NW 292 12,2 C 17,9 km/h (3 Bft)
03.06.2015 13:00 26,5 C 28,1 C 43 % 1022,7 hPa 0,0 mm 10,4 km/h (2 Bft) NW 315 12,9 C 7,0 km/h (2 Bft)
03.06.2015 13:05 26,4 C 27,9 C 42 % 1022,7 hPa 0,0 mm 10,4 km/h (2 Bft) NW 315 12,4 C 10,6 km/h (2 Bft)
03.06.2015 13:10 26,5 C 28,1 C 43 % 1022,7 hPa 0,0 mm 10,4 km/h (2 Bft) W 270 12,9 C 14,8 km/h (3 Bft)
03.06.2015 13:15 26,5 C 28,3 C 42 % 1022,7 hPa 0,0 mm 11,9 km/h (2 Bft) W-NW 292 12,5 C 17,6 km/h (3 Bft)
03.06.2015 13:20 26,5 C 28,9 C 41 % 1022,6 hPa 0,0 mm 13,5 km/h (3 Bft) N 360 12,2 C 12,9 km/h (3 Bft)
03.06.2015 13:25 26,5 C 29,0 C 40 % 1022,6 hPa 0,0 mm 12,7 km/h (3 Bft) S-SW 202 11,8 C 6,0 km/h (2 Bft)
03.06.2015 13:30 27,1 C 29,8 C 42 % 1022,6 hPa 0,0 mm 10,1 km/h (2 Bft) W-SW 247 13,1 C 10,1 km/h (2 Bft)
03.06.2015 13:35 26,9 C 29,9 C 41 % 1022,6 hPa 0,0 mm 10,4 km/h (2 Bft) W-NW 292 12,5 C 16,8 km/h (3 Bft)
03.06.2015 13:40 26,6 C 29,5 C 41 % 1022,6 hPa 0,0 mm 13,2 km/h (3 Bft) NW 315 12,2 C 6,0 km/h (2 Bft)
03.06.2015 13:45 26,5 C 29,2 C 41 % 1022,6 hPa 0,0 mm 12,4 km/h (3 Bft) W 270 12,2 C 13,7 km/h (3 Bft)
03.06.2015 13:50 26,6 C 29,3 C 41 % 1022,6 hPa 0,0 mm 12,9 km/h (3 Bft) NW 315 12,2 C 11,7 km/h (2 Bft)
03.06.2015 13:55 25,9 C 28,1 C 43 % 1022,6 hPa 0,0 mm 12,9 km/h (3 Bft) NW 315 12,3 C 12,2 km/h (2 Bft)
03.06.2015 14:00 26,5 C 28,8 C 42 % 1022,6 hPa 0,0 mm 12,7 km/h (3 Bft) NW 315 12,5 C 18,1 km/h (3 Bft)
03.06.2015 14:05 26,6 C 28,8 C 42 % 1022,6 hPa 0,0 mm 13,5 km/h (3 Bft) W-SW 247 12,6 C 19,4 km/h (3 Bft)
03.06.2015 14:10 26,9 C 29,2 C 43 % 1022,6 hPa 0,0 mm 12,7 km/h (3 Bft) W-NW 292 13,2 C 16,8 km/h (3 Bft)
03.06.2015 14:15 26,9 C 29,4 C 42 % 1022,6 hPa 0,0 mm 11,1 km/h (2 Bft) W 270 12,9 C 12,2 km/h (2 Bft)
03.06.2015 14:20 26,5 C 29,5 C 43 % 1022,3 hPa 0,0 mm 9,8 km/h (2 Bft) W 270 12,9 C 11,4 km/h (2 Bft)
03.06.2015 14:25 26,6 C 29,5 C 42 % 1022,3 hPa 0,0 mm 9,1 km/h (2 Bft) N 360 12,6 C 11,7 km/h (2 Bft)
03.06.2015 14:30 26,5 C 29,2 C 43 % 1022,3 hPa 0,0 mm 9,6 km/h (2 Bft) NW 315 12,9 C 7,8 km/h (2 Bft)
03.06.2015 14:35 26,1 C 28,2 C 44 % 1022,3 hPa 0,0 mm 9,3 km/h (2 Bft) W-NW 292 12,9 C 15,3 km/h (3 Bft)
03.06.2015 14:40 26,2 C 28,0 C 44 % 1022,4 hPa 0,0 mm 7,5 km/h (2 Bft) N-NW 337 13,0 C 0,0 km/h (0 Bft)
03.06.2015 14:45 26,6 C 29,2 C 43 % 1022,4 hPa 0,0 mm 7,5 km/h (2 Bft) NW 315 13,0 C 12,2 km/h (2 Bft)
03.06.2015 14:50 26,5 C 29,1 C 43 % 1022,4 hPa 0,0 mm 9,1 km/h (2 Bft) SW 225 12,9 C 8,5 km/h (2 Bft)
03.06.2015 14:55 26,0 C 28,6 C 43 % 1022,4 hPa 0,0 mm 9,6 km/h (2 Bft) S 180 12,4 C 33,4 km/h (5 Bft)
03.06.2015 15:00 26,0 C 28,5 C 44 % 1022,4 hPa 0,0 mm 8,0 km/h (2 Bft) N 360 12,8 C 6,0 km/h (2 Bft)
03.06.2015 15:05 26,3 C 28,9 C 43 % 1022,4 hPa 0,0 mm 9,3 km/h (2 Bft) N-NW 337 12,7 C 17,3 km/h (3 Bft)
03.06.2015 15:10 26,5 C 29,2 C 43 % 1022,4 hPa 0,0 mm 10,6 km/h (2 Bft) NW 315 12,9 C 10,1 km/h (2 Bft)
03.06.2015 15:15 27,1 C 30,4 C 44 % 1022,4 hPa 0,0 mm 8,8 km/h (2 Bft) SW 225 13,8 C 11,4 km/h (2 Bft)
03.06.2015 15:20 27,2 C 31,3 C 42 % 1022,3 hPa 0,0 mm 7,5 km/h (2 Bft) NW 315 13,2 C 6,0 km/h (2 Bft)
03.06.2015 15:25 27,0 C 31,3 C 42 % 1022,3 hPa 0,0 mm 9,1 km/h (2 Bft) W 270 13,0 C 14,2 km/h (3 Bft)
03.06.2015 15:30 27,2 C 31,7 C 43 % 1022,3 hPa 0,0 mm 7,5 km/h (2 Bft) NW 315 13,5 C 16,8 km/h (3 Bft)
03.06.2015 15:35 27,0 C 31,7 C 42 % 1022,3 hPa 0,0 mm 7,5 km/h (2 Bft) W-NW 292 13,0 C 16,8 km/h (3 Bft)
03.06.2015 15:40 27,0 C 31,1 C 42 % 1022,4 hPa 0,0 mm 10,1 km/h (2 Bft) NW 315 13,0 C 13,7 km/h (3 Bft)
03.06.2015 15:45 27,1 C 30,9 C 42 % 1022,4 hPa 0,0 mm 10,9 km/h (2 Bft) N-NW 337 13,1 C 6,5 km/h (2 Bft)
03.06.2015 15:50 27,1 C 30,9 C 42 % 1022,4 hPa 0,0 mm 9,3 km/h (2 Bft) N-NW 337 13,1 C 17,3 km/h (3 Bft)
03.06.2015 15:55 27,2 C 31,0 C 42 % 1022,4 hPa 0,0 mm 10,1 km/h (2 Bft) N 360 13,2 C 7,8 km/h (2 Bft)
03.06.2015 16:00 26,7 C 30,8 C 42 % 1022,2 hPa 0,0 mm 11,9 km/h (2 Bft) W-NW 292 12,7 C 15,8 km/h (3 Bft)
03.06.2015 16:05 26,4 C 30,3 C 43 % 1022,2 hPa 0,0 mm 11,4 km/h (2 Bft) W-NW 292 12,8 C 14,0 km/h (3 Bft)
03.06.2015 16:10 26,0 C 30,5 C 43 % 1022,2 hPa 0,0 mm 10,4 km/h (2 Bft) W-NW 292 12,4 C 13,7 km/h (3 Bft)
03.06.2015 16:15 25,9 C 31,0 C 45 % 1022,2 hPa 0,0 mm 9,3 km/h (2 Bft) W 270 13,0 C 8,5 km/h (2 Bft)
03.06.2015 16:20 25,8 C 31,2 C 46 % 1022,2 hPa 0,0 mm 9,1 km/h (2 Bft) NW 315 13,3 C 12,9 km/h (3 Bft)
03.06.2015 16:25 25,9 C 31,2 C 46 % 1022,2 hPa 0,0 mm 9,1 km/h (2 Bft) W 270 13,4 C 9,8 km/h (2 Bft)
03.06.2015 16:30 25,7 C 30,8 C 46 % 1022,2 hPa 0,0 mm 9,8 km/h (2 Bft) W-NW 292 13,2 C 11,9 km/h (2 Bft)
03.06.2015 16:35 25,8 C 30,8 C 46 % 1022,2 hPa 0,0 mm 11,1 km/h (2 Bft) NW 315 13,3 C 11,9 km/h (2 Bft)
03.06.2015 16:40 25,5 C 29,9 C 46 % 1022,2 hPa 0,0 mm 10,9 km/h (2 Bft) W 270 13,0 C 23,6 km/h (4 Bft)
03.06.2015 16:45 25,4 C 29,3 C 46 % 1022,2 hPa 0,0 mm 12,7 km/h (3 Bft) W-NW 292 12,9 C 23,8 km/h (4 Bft)
03.06.2015 16:50 25,6 C 29,5 C 46 % 1022,2 hPa 0,0 mm 15,3 km/h (3 Bft) NW 315 13,1 C 14,5 km/h (3 Bft)
03.06.2015 16:55 25,4 C 28,9 C 46 % 1022,2 hPa 0,0 mm 14,0 km/h (3 Bft) W 270 12,9 C 11,1 km/h (2 Bft)
03.06.2015 17:00 24,9 C 27,6 C 46 % 1022,2 hPa 0,0 mm 9,6 km/h (2 Bft) W-SW 247 12,5 C 4,4 km/h (1 Bft)
03.06.2015 17:05 24,7 C 27,1 C 47 % 1022,2 hPa 0,0 mm 7,5 km/h (2 Bft) S-SO 157 12,6 C 5,7 km/h (1 Bft)
03.06.2015 17:10 24,7 C 26,9 C 47 % 1022,2 hPa 0,0 mm 6,5 km/h (2 Bft) NW 315 12,6 C 8,5 km/h (2 Bft)
03.06.2015 17:15 24,6 C 26,6 C 47 % 1022,2 hPa 0,0 mm 8,0 km/h (2 Bft) N-NO 22 12,5 C 7,5 km/h (2 Bft)
03.06.2015 17:20 24,6 C 26,2 C 47 % 1022,2 hPa 0,0 mm 10,9 km/h (2 Bft) W-NW 292 12,5 C 12,7 km/h (3 Bft)
03.06.2015 17:25 24,6 C 26,0 C 47 % 1022,2 hPa 0,0 mm 12,4 km/h (3 Bft) NW 315 12,5 C 14,2 km/h (3 Bft)
03.06.2015 17:30 24,5 C 26,1 C 47 % 1022,2 hPa 0,0 mm 11,9 km/h (2 Bft) NW 315 12,4 C 12,4 km/h (3 Bft)
03.06.2015 17:35 24,7 C 26,4 C 47 % 1022,2 hPa 0,0 mm 11,4 km/h (2 Bft) W-SW 247 12,6 C 17,6 km/h (3 Bft)
03.06.2015 17:40 24,8 C 26,6 C 46 % 1022,2 hPa 0,0 mm 13,2 km/h (3 Bft) W 270 12,4 C 13,7 km/h (3 Bft)
03.06.2015 17:45 25,0 C 26,7 C 46 % 1022,2 hPa 0,0 mm 12,4 km/h (3 Bft) W-NW 292 12,6 C 9,8 km/h (2 Bft)
03.06.2015 17:50 25,1 C 27,0 C 46 % 1022,2 hPa 0,0 mm 10,1 km/h (2 Bft) W-SW 247 12,7 C 7,8 km/h (2 Bft)
03.06.2015 17:55 25,0 C 27,0 C 46 % 1022,2 hPa 0,0 mm 10,1 km/h (2 Bft) W 270 12,6 C 15,5 km/h (3 Bft)
03.06.2015 18:00 25,0 C 27,0 C 45 % 1022,2 hPa 0,0 mm 10,6 km/h (2 Bft) W 270 12,2 C 11,9 km/h (2 Bft)
03.06.2015 18:05 25,0 C 27,0 C 45 % 1022,2 hPa 0,0 mm 10,1 km/h (2 Bft) NW 315 12,2 C 8,3 km/h (2 Bft)
03.06.2015 18:10 25,2 C 27,4 C 46 % 1022,2 hPa 0,0 mm 9,1 km/h (2 Bft) W 270 12,7 C 12,9 km/h (3 Bft)
03.06.2015 18:15 25,2 C 27,2 C 46 % 1022,2 hPa 0,0 mm 8,8 km/h (2 Bft) W 270 12,7 C 6,0 km/h (2 Bft)
03.06.2015 18:20 25,2 C 27,1 C 46 % 1022,1 hPa 0,0 mm 10,1 km/h (2 Bft) N-NW 337 12,7 C 12,7 km/h (3 Bft)
03.06.2015 18:25 25,2 C 27,0 C 46 % 1022,1 hPa 0,0 mm 9,8 km/h (2 Bft) W 270 12,7 C 10,1 km/h (2 Bft)
03.06.2015 18:30 25,3 C 27,3 C 45 % 1022,1 hPa 0,0 mm 11,4 km/h (2 Bft) W 270 12,5 C 16,8 km/h (3 Bft)
03.06.2015 18:35 25,1 C 27,8 C 44 % 1022,1 hPa 0,0 mm 12,7 km/h (3 Bft) N-NW 337 12,0 C 16,6 km/h (3 Bft)
03.06.2015 18:40 24,8 C 28,1 C 44 % 1022,2 hPa 0,0 mm 12,7 km/h (3 Bft) W 270 11,7 C 10,1 km/h (2 Bft)
03.06.2015 18:45 24,4 C 27,3 C 44 % 1022,2 hPa 0,0 mm 10,4 km/h (2 Bft) W 270 11,3 C 8,3 km/h (2 Bft)
03.06.2015 18:50 24,0 C 26,8 C 44 % 1022,2 hPa 0,0 mm 6,5 km/h (2 Bft) W-NW 292 11,0 C 15,8 km/h (3 Bft)
03.06.2015 18:55 23,9 C 26,2 C 44 % 1022,2 hPa 0,0 mm 6,0 km/h (2 Bft) NO 45 10,9 C 6,0 km/h (2 Bft)
03.06.2015 19:00 23,7 C 26,0 C 44 % 1022,4 hPa 0,0 mm 7,0 km/h (2 Bft) W 270 10,7 C 6,2 km/h (2 Bft)
03.06.2015 19:05 23,5 C 25,1 C 45 % 1022,4 hPa 0,0 mm 7,0 km/h (2 Bft) NW 315 10,9 C 7,3 km/h (2 Bft)
03.06.2015 19:10 23,2 C 24,7 C 46 % 1022,4 hPa 0,0 mm 4,4 km/h (1 Bft) NO 45 10,9 C 0,0 km/h (0 Bft)
03.06.2015 19:15 23,1 C 24,4 C 46 % 1022,4 hPa 0,0 mm 2,3 km/h (1 Bft) W-NW 292 10,8 C 8,3 km/h (2 Bft)
03.06.2015 19:20 23,0 C 24,5 C 46 % 1022,4 hPa 0,0 mm 1,6 km/h (1 Bft) O-SO 112 10,7 C 0,0 km/h (0 Bft)
03.06.2015 19:25 23,1 C 25,6 C 46 % 1022,4 hPa 0,0 mm 2,6 km/h (1 Bft) NW 315 10,8 C 7,5 km/h (2 Bft)
03.06.2015 19:30 23,4 C 27,2 C 46 % 1022,4 hPa 0,0 mm 3,4 km/h (1 Bft) NW 315 11,1 C 0,0 km/h (0 Bft)
03.06.2015 19:35 23,4 C 26,8 C 46 % 1022,4 hPa 0,0 mm 3,4 km/h (1 Bft) W 270 11,1 C 5,4 km/h (1 Bft)
03.06.2015 19:40 23,0 C 25,6 C 46 % 1022,7 hPa 0,0 mm 1,8 km/h (1 Bft) W 270 10,7 C 0,0 km/h (0 Bft)
03.06.2015 19:45 22,8 C 24,9 C 47 % 1022,7 hPa 0,0 mm 0,8 km/h (0 Bft) W 270 10,9 C 0,0 km/h (0 Bft)
03.06.2015 19:50 22,6 C 24,3 C 47 % 1022,7 hPa 0,0 mm 1,0 km/h (0 Bft) SW 225 10,7 C 0,0 km/h (0 Bft)
03.06.2015 19:55 22,4 C 23,9 C 47 % 1022,7 hPa 0,0 mm 1,0 km/h (0 Bft) SW 225 10,5 C 0,0 km/h (0 Bft)
03.06.2015 20:00 22,2 C 23,6 C 47 % 1022,5 hPa 0,0 mm 0,5 km/h (0 Bft) S-SW 202 10,3 C 3,6 km/h (1 Bft)
03.06.2015 20:05 22,0 C 23,2 C 46 % 1022,5 hPa 0,0 mm 1,0 km/h (0 Bft) SW 225 9,8 C 0,0 km/h (0 Bft)
03.06.2015 20:10 21,8 C 22,7 C 46 % 1022,5 hPa 0,0 mm 1,8 km/h (1 Bft) SW 225 9,7 C 5,4 km/h (1 Bft)
03.06.2015 20:15 21,9 C 22,7 C 45 % 1022,5 hPa 0,0 mm 2,3 km/h (1 Bft) S 180 9,4 C 4,7 km/h (1 Bft)
03.06.2015 20:20 21,8 C 23,2 C 45 % 1022,6 hPa 0,0 mm 3,1 km/h (1 Bft) W-SW 247 9,3 C 2,6 km/h (1 Bft)
03.06.2015 20:25 21,6 C 22,8 C 45 % 1022,6 hPa 0,0 mm 2,8 km/h (1 Bft) S-SW 202 9,2 C 0,0 km/h (0 Bft)
03.06.2015 20:30 21,5 C 22,4 C 45 % 1022,6 hPa 0,0 mm 3,4 km/h (1 Bft) S 180 9,1 C 5,7 km/h (1 Bft)
03.06.2015 20:35 21,4 C 22,2 C 46 % 1022,6 hPa 0,0 mm 3,9 km/h (1 Bft) S 180 9,3 C 6,2 km/h (2 Bft)
03.06.2015 20:40 21,2 C 21,9 C 46 % 1022,7 hPa 0,0 mm 4,1 km/h (1 Bft) W-SW 247 9,1 C 7,0 km/h (2 Bft)
03.06.2015 20:45 21,1 C 21,6 C 47 % 1022,7 hPa 0,0 mm 4,4 km/h (1 Bft) SW 225 9,3 C 5,2 km/h (1 Bft)
03.06.2015 20:50 20,9 C 21,7 C 47 % 1022,7 hPa 0,0 mm 4,9 km/h (1 Bft) S 180 9,2 C 5,2 km/h (1 Bft)
03.06.2015 20:55 20,7 C 21,6 C 48 % 1022,7 hPa 0,0 mm 5,2 km/h (1 Bft) S 180 9,3 C 10,4 km/h (2 Bft)
03.06.2015 21:00 20,4 C 21,1 C 49 % 1022,9 hPa 0,0 mm 5,4 km/h (1 Bft) SW 225 9,3 C 8,3 km/h (2 Bft)
03.06.2015 21:05 20,1 C 20,8 C 49 % 1022,9 hPa 0,0 mm 6,2 km/h (2 Bft) SW 225 9,0 C 9,6 km/h (2 Bft)
03.06.2015 21:10 19,9 C 20,5 C 50 % 1022,9 hPa 0,0 mm 6,7 km/h (2 Bft) S 180 9,2 C 7,5 km/h (2 Bft)
03.06.2015 21:15 19,7 C 20,3 C 51 % 1022,9 hPa 0,0 mm 6,5 km/h (2 Bft) S 180 9,3 C 7,8 km/h (2 Bft)
03.06.2015 21:20 19,0 C 19,9 C 52 % 1022,9 hPa 0,0 mm 4,1 km/h (1 Bft) S-SO 157 8,9 C 0,0 km/h (0 Bft)
03.06.2015 21:25 18,8 C 19,5 C 53 % 1022,9 hPa 0,0 mm 2,1 km/h (1 Bft) S 180 9,0 C 0,0 km/h (0 Bft)
03.06.2015 21:30 18,7 C 19,2 C 54 % 1022,9 hPa 0,0 mm 3,1 km/h (1 Bft) S-SW 202 9,2 C 7,3 km/h (2 Bft)
03.06.2015 21:35 18,7 C 19,2 C 55 % 1022,9 hPa 0,0 mm 4,4 km/h (1 Bft) S-SO 157 9,5 C 4,7 km/h (1 Bft)
03.06.2015 21:40 18,6 C 19,2 C 55 % 1023,1 hPa 0,0 mm 5,7 km/h (1 Bft) S 180 9,4 C 4,4 km/h (1 Bft)
03.06.2015 21:45 18,6 C 19,1 C 55 % 1023,1 hPa 0,0 mm 5,7 km/h (1 Bft) S 180 9,4 C 10,4 km/h (2 Bft)
03.06.2015 21:50 18,8 C 19,1 C 54 % 1023,1 hPa 0,0 mm 5,7 km/h (1 Bft) S 180 9,3 C 7,3 km/h (2 Bft)
03.06.2015 21:55 18,7 C 19,0 C 54 % 1023,1 hPa 0,0 mm 6,2 km/h (2 Bft) S 180 9,2 C 8,3 km/h (2 Bft)
03.06.2015 22:00 18,3 C 19,0 C 54 % 1023,3 hPa 0,0 mm 4,9 km/h (1 Bft) N-NW 337 8,8 C 3,6 km/h (1 Bft)
03.06.2015 22:05 17,5 C 18,4 C 57 % 1023,3 hPa 0,0 mm 3,6 km/h (1 Bft) S 180 8,9 C 3,4 km/h (1 Bft)
03.06.2015 22:10 17,3 C 17,4 C 57 % 1023,3 hPa 0,0 mm 2,1 km/h (1 Bft) S-SO 157 8,7 C 3,6 km/h (1 Bft)
03.06.2015 22:15 17,6 C 17,6 C 58 % 1023,3 hPa 0,0 mm 2,6 km/h (1 Bft) S-SO 157 9,2 C 3,9 km/h (1 Bft)
03.06.2015 22:20 17,4 C 17,7 C 60 % 1023,8 hPa 0,0 mm 3,4 km/h (1 Bft) S-SO 157 9,6 C 4,9 km/h (1 Bft)
03.06.2015 22:25 17,4 C 17,9 C 60 % 1023,8 hPa 0,0 mm 4,1 km/h (1 Bft) S-SO 157 9,6 C 5,2 km/h (1 Bft)
03.06.2015 22:30 17,8 C 18,2 C 59 % 1023,8 hPa 0,0 mm 4,1 km/h (1 Bft) S 180 9,7 C 2,8 km/h (1 Bft)
03.06.2015 22:35 17,4 C 18,2 C 59 % 1023,8 hPa 0,0 mm 2,8 km/h (1 Bft) SO 135 9,3 C 0,0 km/h (0 Bft)
03.06.2015 22:40 17,2 C 17,6 C 60 % 1023,7 hPa 0,0 mm 1,8 km/h (1 Bft) S 180 9,4 C 4,7 km/h (1 Bft)
03.06.2015 22:45 17,1 C 17,8 C 60 % 1023,7 hPa 0,0 mm 2,6 km/h (1 Bft) S-SO 157 9,3 C 4,1 km/h (1 Bft)
03.06.2015 22:50 17,0 C 17,6 C 61 % 1023,7 hPa 0,0 mm 2,6 km/h (1 Bft) S-SO 157 9,4 C 3,6 km/h (1 Bft)
03.06.2015 22:55 17,1 C 17,6 C 61 % 1023,7 hPa 0,0 mm 2,6 km/h (1 Bft) S-SO 157 9,5 C 3,9 km/h (1 Bft)
03.06.2015 23:00 16,9 C 17,7 C 62 % 1023,8 hPa 0,0 mm 3,9 km/h (1 Bft) S-SO 157 9,6 C 5,4 km/h (1 Bft)
03.06.2015 23:05 16,7 C 17,7 C 63 % 1023,8 hPa 0,0 mm 4,4 km/h (1 Bft) SO 135 9,6 C 4,4 km/h (1 Bft)
03.06.2015 23:10 16,3 C 17,2 C 63 % 1023,8 hPa 0,0 mm 2,6 km/h (1 Bft) S 180 9,2 C 0,0 km/h (0 Bft)
03.06.2015 23:15 16,0 C 16,7 C 64 % 1023,8 hPa 0,0 mm 1,6 km/h (1 Bft) S-SO 157 9,2 C 3,6 km/h (1 Bft)
03.06.2015 23:20 16,1 C 16,7 C 64 % 1024,0 hPa 0,0 mm 2,8 km/h (1 Bft) S-SO 157 9,3 C 3,6 km/h (1 Bft)
03.06.2015 23:25 15,9 C 16,6 C 65 % 1024,0 hPa 0,0 mm 3,1 km/h (1 Bft) S-SO 157 9,3 C 3,1 km/h (1 Bft)
03.06.2015 23:30 15,8 C 16,4 C 66 % 1024,0 hPa 0,0 mm 2,1 km/h (1 Bft) S-SO 157 9,5 C 2,8 km/h (1 Bft)
03.06.2015 23:35 15,7 C 16,4 C 66 % 1024,0 hPa 0,0 mm 2,6 km/h (1 Bft) S-SO 157 9,4 C 3,1 km/h (1 Bft)
03.06.2015 23:40 15,5 C 16,1 C 66 % 1024,2 hPa 0,0 mm 2,3 km/h (1 Bft) SO 135 9,2 C 0,0 km/h (0 Bft)
03.06.2015 23:45 15,3 C 16,0 C 67 % 1024,2 hPa 0,0 mm 1,6 km/h (1 Bft) SO 135 9,2 C 3,4 km/h (1 Bft)
03.06.2015 23:50 15,1 C 15,7 C 68 % 1024,2 hPa 0,0 mm 1,8 km/h (1 Bft) S-SO 157 9,2 C 3,4 km/h (1 Bft)
03.06.2015 23:55 15,1 C 15,7 C 68 % 1024,2 hPa 0,0 mm 3,1 km/h (1 Bft) S-SO 157 9,2 C 4,9 km/h (1 Bft)
_ Min-Zeit 05:15 05:15 13:25 02:15 - 08:50 - - 22:10 23:40
Minimum _ 11,8 C 11,7 C 40 % 1020,1 hPa - 0,0 km/h (0 Bft) - - 8,7 C 0,0 km/h (0 Bft)
_ Max-Zeit 15:55 08:55 05:20 23:55 23:55 16:50 - - 08:25 14:55
Maximum _ 27,2 C 32,0 C 87 % 1024,2 hPa 0,0 mm 15,3 km/h
NW (3 Bft)
- - 15,0 C 33,4 km/h
S (5 Bft)
Durchschnitt _ 20,2 C 22,7 C 60 % 1022,0 hPa #0,0 mm 5,0 km/h (1 Bft) NW - 11,6 C 6,2 km/h (2 Bft)